createdAt,value
2022-09-24T00:02:55.463Z,13.73
2022-09-24T00:08:04.074Z,14.37
2022-09-24T00:13:15.142Z,14.73
2022-09-24T00:18:23.833Z,13.17
2022-09-24T00:23:33.403Z,15.13
2022-09-24T00:28:42.335Z,15.47
2022-09-24T00:33:52.460Z,12.47
2022-09-24T00:39:01.250Z,13.57
2022-09-24T00:44:13.479Z,14.90
2022-09-24T00:49:21.900Z,16.17
2022-09-24T00:54:30.500Z,11.30
2022-09-24T00:59:38.990Z,14.07
2022-09-24T01:04:50.444Z,15.93
2022-09-24T01:09:59.140Z,17.17
2022-09-24T01:15:12.212Z,13.73
2022-09-24T01:25:42.112Z,16.73
2022-09-24T01:30:50.162Z,16.50
2022-09-24T01:36:02.329Z,23.00
2022-09-24T01:41:11.547Z,19.33
2022-09-24T01:46:19.990Z,16.67
2022-09-24T01:51:31.981Z,21.53
2022-09-24T01:56:43.434Z,20.40
2022-09-24T02:01:56.385Z,16.63
2022-09-24T02:07:08.798Z,19.20
2022-09-24T02:12:19.844Z,14.10
2022-09-24T02:17:30.637Z,21.03
2022-09-24T02:22:39.172Z,23.43
2022-09-24T02:27:47.339Z,22.30
2022-09-24T02:32:55.567Z,20.43
2022-09-24T02:38:06.318Z,20.63
2022-09-24T02:43:15.982Z,18.23
2022-09-24T02:48:25.432Z,19.43
2022-09-24T02:53:44.778Z,19.87
2022-09-24T02:58:54.923Z,21.27
2022-09-24T03:04:04.682Z,18.60
2022-09-24T03:09:13.948Z,20.40
2022-09-24T03:14:22.583Z,26.03
2022-09-24T03:19:31.878Z,26.70
2022-09-24T03:24:40.271Z,27.27
2022-09-24T03:29:51.279Z,32.57
2022-09-24T03:34:59.191Z,21.47
2022-09-24T03:40:08.262Z,26.07
2022-09-24T03:45:16.640Z,25.60
2022-09-24T03:50:25.030Z,19.70
2022-09-24T03:55:33.909Z,21.40
2022-09-24T04:00:42.767Z,20.40
2022-09-24T04:05:51.831Z,23.70
2022-09-24T04:11:00.174Z,21.83
2022-09-24T04:16:08.399Z,23.20
2022-09-24T04:21:16.775Z,19.63
2022-09-24T04:26:24.995Z,22.10
2022-09-24T04:31:33.638Z,20.27
2022-09-24T04:36:42.990Z,23.93
2022-09-24T04:41:51.453Z,22.57
2022-09-24T04:47:04.531Z,23.73
2022-09-24T04:52:15.215Z,27.00
2022-09-24T04:57:25.045Z,26.40
2022-09-24T05:02:35.130Z,26.57
2022-09-24T05:07:44.979Z,24.07
2022-09-24T05:12:53.658Z,25.93
2022-09-24T05:18:01.952Z,27.93
2022-09-24T05:23:10.356Z,30.17
2022-09-24T05:28:23.102Z,32.10
2022-09-24T05:33:31.537Z,37.07
2022-09-24T05:38:42.092Z,34.03
2022-09-24T05:43:51.357Z,28.67
2022-09-24T05:49:01.359Z,23.50
2022-09-24T05:54:09.837Z,25.23
2022-09-24T05:59:20.418Z,27.60
2022-09-24T06:09:44.514Z,21.23
2022-09-24T06:14:54.376Z,18.30
2022-09-24T06:20:06.219Z,18.20
2022-09-24T06:25:16.012Z,20.40
2022-09-24T06:30:24.301Z,25.60
2022-09-24T06:35:36.245Z,17.63
2022-09-24T06:40:45.889Z,20.07
2022-09-24T06:45:57.234Z,21.77
2022-09-24T06:51:06.394Z,18.20
2022-09-24T06:56:14.802Z,14.23
2022-09-24T07:01:23.183Z,19.30
2022-09-24T07:06:34.050Z,19.90
2022-09-24T07:11:44.041Z,10.37
2022-09-24T07:16:55.291Z,9.97
2022-09-24T07:22:03.927Z,9.47
2022-09-24T07:27:33.787Z,13.97
2022-09-24T07:32:42.753Z,11.87
2022-09-24T07:37:54.043Z,9.57
2022-09-24T07:43:02.659Z,7.63
2022-09-24T07:48:11.262Z,11.00
2022-09-24T07:53:19.368Z,6.20
2022-09-24T07:58:28.565Z,11.17
2022-09-24T08:03:37.342Z,8.10
2022-09-24T08:08:46.765Z,7.37
2022-09-24T08:13:57.028Z,8.90
2022-09-24T08:19:05.626Z,9.40
2022-09-24T08:24:14.493Z,11.43
2022-09-24T08:29:23.841Z,6.83
2022-09-24T08:34:35.162Z,6.87
2022-09-24T08:39:46.386Z,8.27
2022-09-24T08:44:57.942Z,8.37
2022-09-24T08:50:10.637Z,4.30
2022-09-24T08:55:21.913Z,7.83
2022-09-24T09:00:30.671Z,5.73
2022-09-24T09:05:45.893Z,5.57
2022-09-24T09:10:52.556Z,6.10
2022-09-24T09:16:04.303Z,6.50
2022-09-24T09:21:16.169Z,4.37
2022-09-24T09:26:26.078Z,7.67
2022-09-24T09:31:37.395Z,5.97
2022-09-24T09:36:48.487Z,6.00
2022-09-24T09:41:59.960Z,5.20
2022-09-24T09:47:14.038Z,5.50
2022-09-24T09:52:25.528Z,5.17
2022-09-24T09:57:33.833Z,8.00
2022-09-24T10:02:43.440Z,4.40
2022-09-24T10:08:00.306Z,5.40
2022-09-24T10:13:10.235Z,8.35
2022-09-24T10:18:18.782Z,4.80
2022-09-24T10:23:31.129Z,7.27
2022-09-24T10:28:42.989Z,7.63
2022-09-24T10:33:53.436Z,4.67
2022-09-24T10:39:05.319Z,8.57
2022-09-24T10:44:14.410Z,5.43
2022-09-24T10:49:26.640Z,5.80
2022-09-24T10:59:47.324Z,4.60
2022-09-24T11:04:59.479Z,6.60
2022-09-24T11:10:11.135Z,6.00
2022-09-24T11:15:22.204Z,4.20
2022-09-24T11:20:33.340Z,3.57
2022-09-24T11:25:45.024Z,3.40
2022-09-24T11:30:55.316Z,6.97
2022-09-24T11:36:05.777Z,2.63
2022-09-24T11:41:17.250Z,4.80
2022-09-24T11:46:30.824Z,7.47
2022-09-24T11:51:41.919Z,4.73
2022-09-24T11:56:53.750Z,3.53
2022-09-24T12:02:05.467Z,4.60
2022-09-24T12:07:15.842Z,6.33
2022-09-24T12:12:27.044Z,4.00
2022-09-24T12:17:39.599Z,4.83
2022-09-24T12:22:50.588Z,2.27
2022-09-24T12:28:01.544Z,4.20
2022-09-24T12:33:12.956Z,2.70
2022-09-24T12:38:24.365Z,2.03
2022-09-24T12:43:35.568Z,2.37
2022-09-24T12:48:44.338Z,5.40
2022-09-24T12:53:55.804Z,3.20
2022-09-24T12:59:05.899Z,2.40
2022-09-24T13:04:18.254Z,2.57
2022-09-24T13:09:31.813Z,4.67
2022-09-24T13:14:41.393Z,6.67
2022-09-24T13:19:49.999Z,4.27
2022-09-24T13:25:02.007Z,3.00
2022-09-24T13:30:16.589Z,2.93
2022-09-24T13:35:29.542Z,2.47
2022-09-24T13:40:40.458Z,1.80
2022-09-24T13:45:49.001Z,2.33
2022-09-24T13:50:58.077Z,2.03
2022-09-24T13:56:09.173Z,3.23
2022-09-24T14:01:20.567Z,3.53
2022-09-24T14:06:32.305Z,2.43
2022-09-24T14:11:40.693Z,6.33
2022-09-24T14:16:49.066Z,1.90
2022-09-24T14:22:04.217Z,4.13
2022-09-24T14:27:16.518Z,1.70
2022-09-24T14:32:28.368Z,2.13
2022-09-24T14:37:39.613Z,4.90
2022-09-24T14:42:50.043Z,1.98
2022-09-24T14:48:02.039Z,2.67
2022-09-24T14:53:13.794Z,2.30
2022-09-24T14:58:24.845Z,5.50
2022-09-24T15:03:36.772Z,6.60
2022-09-24T15:08:50.205Z,5.10
2022-09-24T15:14:00.455Z,1.80
2022-09-24T15:19:12.566Z,5.93
2022-09-24T15:24:22.481Z,4.33
2022-09-24T15:29:30.644Z,2.80
2022-09-24T15:34:39.078Z,3.40
2022-09-24T15:39:49.510Z,3.43
2022-09-24T15:44:58.938Z,5.50
2022-09-24T15:50:08.131Z,6.03
2022-09-24T15:55:18.378Z,5.47
2022-09-24T16:00:27.929Z,6.53
2022-09-24T16:05:36.765Z,8.70
2022-09-24T16:10:46.544Z,4.80
2022-09-24T16:15:55.492Z,7.20
2022-09-24T16:21:08.823Z,9.80
2022-09-24T16:26:17.659Z,7.37
2022-09-24T16:31:28.272Z,6.77
2022-09-24T16:36:39.106Z,5.67
2022-09-24T16:41:52.019Z,7.43
2022-09-24T16:47:00.702Z,7.17
2022-09-24T16:52:08.919Z,15.60
2022-09-24T16:57:17.368Z,12.20
2022-09-24T17:02:26.480Z,10.27
2022-09-24T17:07:35.500Z,7.53
2022-09-24T17:12:45.591Z,11.23
2022-09-24T17:17:54.277Z,18.33
2022-09-24T17:23:04.409Z,26.03
2022-09-24T17:28:12.570Z,32.47
2022-09-24T17:33:42.195Z,38.27
2022-09-24T17:38:45.972Z,50.73
2022-09-24T17:43:53.963Z,52.23
2022-09-24T17:49:02.125Z,50.07
2022-09-24T17:54:13.706Z,44.57
2022-09-24T17:59:27.269Z,43.60
2022-09-24T18:04:37.326Z,41.33
2022-09-24T18:09:45.876Z,39.70
2022-09-24T18:14:55.139Z,40.87
2022-09-24T18:20:04.270Z,37.07
2022-09-24T18:25:19.003Z,40.13
2022-09-24T18:30:28.056Z,35.93
2022-09-24T18:35:38.920Z,36.90
2022-09-24T18:40:47.849Z,42.53
2022-09-24T18:45:57.781Z,37.07
2022-09-24T18:51:08.446Z,40.60
2022-09-24T18:56:17.785Z,50.03
2022-09-24T19:01:49.198Z,44.63
2022-09-24T19:07:31.040Z,33.27
2022-09-24T19:12:41.340Z,29.42
2022-09-24T19:17:53.979Z,30.43
2022-09-24T19:23:02.081Z,39.57
2022-09-24T19:28:12.058Z,44.23
2022-09-24T19:33:27.105Z,51.67
2022-09-24T19:38:37.255Z,40.83
2022-09-24T19:43:46.332Z,42.10
2022-09-24T19:48:55.395Z,31.13
2022-09-24T19:54:08.113Z,32.80
2022-09-24T19:59:19.898Z,27.40
2022-09-24T20:04:28.077Z,28.97
2022-09-24T20:09:41.676Z,22.63
2022-09-24T20:14:52.092Z,23.43
2022-09-24T20:20:05.242Z,20.93
2022-09-24T20:25:14.037Z,22.90
2022-09-24T20:30:24.607Z,19.07
2022-09-24T20:35:34.053Z,19.30
2022-09-24T20:40:44.079Z,22.27
2022-09-24T20:45:53.723Z,19.87
2022-09-24T20:51:04.575Z,21.63
2022-09-24T20:56:14.692Z,18.70
2022-09-24T21:01:25.140Z,17.10
2022-09-24T21:06:34.949Z,19.13
2022-09-24T21:11:44.324Z,26.67
2022-09-24T21:16:55.255Z,28.03
2022-09-24T21:22:03.831Z,28.40
2022-09-24T21:27:12.193Z,23.23
2022-09-24T21:32:21.591Z,28.50
2022-09-24T21:37:29.619Z,22.77
2022-09-24T21:42:38.353Z,26.30
2022-09-24T21:47:46.649Z,25.60
2022-09-24T21:52:56.147Z,24.30
2022-09-24T21:58:05.706Z,32.50
2022-09-24T22:03:14.535Z,31.47
2022-09-24T22:08:25.106Z,33.80
2022-09-24T22:13:34.808Z,34.27
2022-09-24T22:18:44.214Z,34.57
2022-09-24T22:23:52.231Z,38.97
2022-09-24T22:29:00.238Z,25.70
2022-09-24T22:34:09.813Z,35.13
2022-09-24T22:39:17.719Z,33.90
2022-09-24T22:44:25.556Z,28.53
2022-09-24T22:49:33.474Z,24.50
2022-09-24T22:54:41.363Z,23.47
2022-09-24T22:59:49.974Z,16.73
2022-09-24T23:04:58.149Z,19.63
2022-09-24T23:10:07.450Z,22.37
2022-09-24T23:15:15.800Z,30.43
2022-09-24T23:20:24.476Z,19.43
2022-09-24T23:25:32.309Z,17.43
2022-09-24T23:30:40.342Z,19.67
2022-09-24T23:35:51.426Z,18.83
2022-09-24T23:41:00.787Z,18.77
2022-09-24T23:46:09.343Z,16.10
2022-09-24T23:51:17.489Z,16.00
2022-09-24T23:56:25.473Z,15.53
